^^
Saratoga-Weather Station Historical Data
Daily Summary for January 5, 2021 Units:  Both    English   Metric
Daily Weekly Monthly Yearly Custom
  High: Low: Average:
Temperature: 81.3 °F /  27.4 °C 55.9 °F /  13.3 °C 67.6 °F /  19.8 °C
Dew Point: 62.2 °F /  16.8 °C 54 °F /  12.2 °C 57.6 °F /  14.2 °C
Humidity: 95% 44% 73%
Wind Speed: 6mph /  9.7km/h - 0.7mph /  1.2km/h
Wind Gust: 10mph /  16.1km/h - -
Wind- - SSE
Pressure: 30.1 in /  1020.0 hPa 30 in /  1016.3 hPa -
Precipitation: 0 in /  0.0 mm    
Historical Graphs
 
 
Tabular Data for January 5, 2021
Time Temperature Dew Point Pressure Wind Wind Speed Wind Gust Humidity Rainfall Rate (Hourly) solar
00:02 60.4 °F /  15.8 °C 55.6 °F /  13.1 °C 30in /  1016.3hPa Calm     84% 0in /  0.0mm 0 W/m2
00:07 60.4 °F /  15.8 °C 55.9 °F /  13.3 °C 30in /  1016.3hPa Calm     85% 0in /  0.0mm 0 W/m2
00:12 60.3 °F /  15.7 °C 55.8 °F /  13.2 °C 30in /  1016.3hPa Calm     85% 0in /  0.0mm 0 W/m2
00:17 60.3 °F /  15.7 °C 55.8 °F /  13.2 °C 30in /  1016.3hPa Calm     85% 0in /  0.0mm 0 W/m2
00:22 60.3 °F /  15.7 °C 55.8 °F /  13.2 °C 30in /  1016.3hPa Calm     85% 0in /  0.0mm 0 W/m2
00:27 60.1 °F /  15.6 °C 55.6 °F /  13.1 °C 30in /  1016.3hPa Calm     85% 0in /  0.0mm 0 W/m2
00:32 60.1 °F /  15.6 °C 55.6 °F /  13.1 °C 30in /  1016.3hPa Calm     85% 0in /  0.0mm 0 W/m2
00:37 59.9 °F /  15.5 °C 55.8 °F /  13.2 °C 30in /  1016.3hPa Calm     86% 0in /  0.0mm 0 W/m2
00:42 59.7 °F /  15.4 °C 55.6 °F /  13.1 °C 30in /  1016.3hPa Calm     86% 0in /  0.0mm 0 W/m2
00:47 59.5 °F /  15.3 °C 55.4 °F /  13 °C 30in /  1016.3hPa Calm     86% 0in /  0.0mm 0 W/m2
00:52 59.5 °F /  15.3 °C 55.4 °F /  13 °C 30in /  1016.3hPa Calm     86% 0in /  0.0mm 0 W/m2
00:57 59.4 °F /  15.2 °C 55.2 °F /  12.9 °C 30in /  1016.3hPa Calm     86% 0in /  0.0mm 0 W/m2
01:02 59.4 °F /  15.2 °C 55.4 °F /  13 °C 30in /  1016.3hPa Calm     87% 0in /  0.0mm 0 W/m2
01:07 59.4 °F /  15.2 °C 55.4 °F /  13 °C 30in /  1016.3hPa Calm     87% 0in /  0.0mm 0 W/m2
01:12 59.2 °F /  15.1 °C 55.4 °F /  13 °C 30in /  1016.3hPa Calm     87% 0in /  0.0mm 0 W/m2
01:17 59 °F /  15 °C 55.2 °F /  12.9 °C 30in /  1016.6hPa Calm     87% 0in /  0.0mm 0 W/m2
01:22 58.8 °F /  14.9 °C 55.2 °F /  12.9 °C 30in /  1016.6hPa SSW 2mph /  3.2km/h 2mph /  3.2km/h 88% 0in /  0.0mm 0 W/m2
01:27 58.8 °F /  14.9 °C 55.2 °F /  12.9 °C 30in /  1016.6hPa Calm   2mph /  3.2km/h 88% 0in /  0.0mm 0 W/m2
01:32 58.8 °F /  14.9 °C 55.2 °F /  12.9 °C 30in /  1016.6hPa SSW 0.9mph /  1.4km/h 1mph /  1.6km/h 88% 0in /  0.0mm 0 W/m2
01:37 59.2 °F /  15.1 °C 55.6 °F /  13.1 °C 30in /  1016.6hPa Calm     88% 0in /  0.0mm 0 W/m2
01:42 59.2 °F /  15.1 °C 55.6 °F /  13.1 °C 30in /  1016.6hPa SSW 2mph /  3.2km/h 2mph /  3.2km/h 88% 0in /  0.0mm 0 W/m2
01:47 59.5 °F /  15.3 °C 55.9 °F /  13.3 °C 30in /  1016.6hPa Calm     88% 0in /  0.0mm 0 W/m2
01:52 59.5 °F /  15.3 °C 55.6 °F /  13.1 °C 30in /  1016.6hPa Calm     87% 0in /  0.0mm 0 W/m2
01:57 59.7 °F /  15.4 °C 55.8 °F /  13.2 °C 30in /  1016.6hPa Calm   1mph /  1.6km/h 87% 0in /  0.0mm 0 W/m2
02:02 59.7 °F /  15.4 °C 55.8 °F /  13.2 °C 30in /  1016.6hPa Calm   1mph /  1.6km/h 87% 0in /  0.0mm 0 W/m2
02:07 59.7 °F /  15.4 °C 55.8 °F /  13.2 °C 30in /  1016.6hPa Calm     87% 0in /  0.0mm 0 W/m2
02:12 59.7 °F /  15.4 °C 55.8 °F /  13.2 °C 30in /  1016.6hPa WSW 0.9mph /  1.4km/h 3mph /  4.8km/h 87% 0in /  0.0mm 0 W/m2
02:17 60.1 °F /  15.6 °C 55.9 °F /  13.3 °C 30in /  1016.6hPa WSW 0.9mph /  1.4km/h 1mph /  1.6km/h 86% 0in /  0.0mm 0 W/m2
02:22 60.3 °F /  15.7 °C 56.1 °F /  13.4 °C 30in /  1016.6hPa Calm   2mph /  3.2km/h 86% 0in /  0.0mm 0 W/m2
02:27 60.4 °F /  15.8 °C 55.9 °F /  13.3 °C 30in /  1016.6hPa SSW 2mph /  3.2km/h 2mph /  3.2km/h 85% 0in /  0.0mm 0 W/m2
02:32 60.4 °F /  15.8 °C 55.9 °F /  13.3 °C 30in /  1016.6hPa Calm   1mph /  1.6km/h 85% 0in /  0.0mm 0 W/m2
02:37 60.6 °F /  15.9 °C 56.1 °F /  13.4 °C 30in /  1016.6hPa SSW 0.9mph /  1.4km/h 2mph /  3.2km/h 85% 0in /  0.0mm 0 W/m2
02:42 60.6 °F /  15.9 °C 56.1 °F /  13.4 °C 30in /  1016.6hPa SSW 0.9mph /  1.4km/h 1mph /  1.6km/h 85% 0in /  0.0mm 0 W/m2
02:47 60.6 °F /  15.9 °C 56.1 °F /  13.4 °C 30in /  1016.6hPa SSW 0.9mph /  1.4km/h 2mph /  3.2km/h 85% 0in /  0.0mm 0 W/m2
02:52 60.4 °F /  15.8 °C 55.9 °F /  13.3 °C 30in /  1016.6hPa Calm   1mph /  1.6km/h 85% 0in /  0.0mm 0 W/m2
02:57 60.3 °F /  15.7 °C 56.1 °F /  13.4 °C 30in /  1016.6hPa Calm   1mph /  1.6km/h 86% 0in /  0.0mm 0 W/m2
03:02 60.3 °F /  15.7 °C 56.1 °F /  13.4 °C 30in /  1016.6hPa Calm   2mph /  3.2km/h 86% 0in /  0.0mm 0 W/m2
03:07 60.1 °F /  15.6 °C 55.9 °F /  13.3 °C 30in /  1016.6hPa Calm   1mph /  1.6km/h 86% 0in /  0.0mm 0 W/m2
03:12 60.1 °F /  15.6 °C 55.9 °F /  13.3 °C 30in /  1016.6hPa Calm   2mph /  3.2km/h 86% 0in /  0.0mm 0 W/m2
03:17 59.7 °F /  15.4 °C 55.6 °F /  13.1 °C 30in /  1016.6hPa Calm     86% 0in /  0.0mm 0 W/m2
03:22 59.5 °F /  15.3 °C 55.4 °F /  13 °C 30in /  1016.6hPa Calm     86% 0in /  0.0mm 0 W/m2
03:27 59.4 °F /  15.2 °C 55.4 °F /  13 °C 30in /  1016.6hPa Calm     87% 0in /  0.0mm 0 W/m2
03:32 59 °F /  15 °C 55.2 °F /  12.9 °C 30in /  1016.6hPa Calm     87% 0in /  0.0mm 0 W/m2
03:37 58.8 °F /  14.9 °C 55.2 °F /  12.9 °C 30in /  1016.6hPa Calm     88% 0in /  0.0mm 0 W/m2
03:42 58.6 °F /  14.8 °C 55 °F /  12.8 °C 30in /  1016.9hPa Calm     88% 0in /  0.0mm 0 W/m2
03:47 58.3 °F /  14.6 °C 54.7 °F /  12.6 °C 30in /  1016.9hPa Calm     88% 0in /  0.0mm 0 W/m2
03:52 58.1 °F /  14.5 °C 54.9 °F /  12.7 °C 30in /  1016.9hPa Calm     89% 0in /  0.0mm 0 W/m2
03:57 57.7 °F /  14.3 °C 54.5 °F /  12.5 °C 30in /  1016.9hPa Calm     89% 0in /  0.0mm 0 W/m2
04:02 57.7 °F /  14.3 °C 54.9 °F /  12.7 °C 30in /  1016.9hPa Calm   1mph /  1.6km/h 90% 0in /  0.0mm 0 W/m2
04:07 57.7 °F /  14.3 °C 54.9 °F /  12.7 °C 30in /  1016.9hPa Calm     90% 0in /  0.0mm 0 W/m2
04:12 57.6 °F /  14.2 °C 54.7 °F /  12.6 °C 30in /  1016.9hPa Calm   1mph /  1.6km/h 90% 0in /  0.0mm 0 W/m2
04:17 57.6 °F /  14.2 °C 54.7 °F /  12.6 °C 30in /  1016.9hPa Calm     90% 0in /  0.0mm 0 W/m2
04:22 57.4 °F /  14.1 °C 54.9 °F /  12.7 °C 30in /  1016.9hPa Calm     91% 0in /  0.0mm 0 W/m2
04:27 57.4 °F /  14.1 °C 54.9 °F /  12.7 °C 30in /  1016.9hPa Calm     91% 0in /  0.0mm 0 W/m2
04:32 57.4 °F /  14.1 °C 54.9 °F /  12.7 °C 30in /  1016.9hPa Calm     91% 0in /  0.0mm 0 W/m2
04:37 57.4 °F /  14.1 °C 54.9 °F /  12.7 °C 30in /  1016.9hPa Calm     91% 0in /  0.0mm 0 W/m2
04:42 57.4 °F /  14.1 °C 54.9 °F /  12.7 °C 30in /  1016.9hPa Calm     91% 0in /  0.0mm 0 W/m2
04:47 57.4 °F /  14.1 °C 54.9 °F /  12.7 °C 30in /  1016.9hPa Calm     91% 0in /  0.0mm 0 W/m2
04:52 57 °F /  13.9 °C 54.5 °F /  12.5 °C 30in /  1016.9hPa Calm     91% 0in /  0.0mm 0 W/m2
04:57 57 °F /  13.9 °C 54.5 °F /  12.5 °C 30in /  1016.9hPa Calm     91% 0in /  0.0mm 0 W/m2
05:02 56.8 °F /  13.8 °C 54.3 °F /  12.4 °C 30in /  1016.9hPa Calm     91% 0in /  0.0mm 0 W/m2
05:07 56.8 °F /  13.8 °C 54.5 °F /  12.5 °C 30in /  1016.9hPa Calm     92% 0in /  0.0mm 0 W/m2
05:12 56.8 °F /  13.8 °C 54.5 °F /  12.5 °C 30in /  1016.9hPa Calm     92% 0in /  0.0mm 0 W/m2
05:17 56.8 °F /  13.8 °C 54.5 °F /  12.5 °C 30in /  1016.9hPa Calm     92% 0in /  0.0mm 0 W/m2
05:22 56.8 °F /  13.8 °C 54.9 °F /  12.7 °C 30in /  1016.9hPa Calm     93% 0in /  0.0mm 0 W/m2
05:27 56.8 °F /  13.8 °C 54.9 °F /  12.7 °C 30in /  1016.9hPa Calm     93% 0in /  0.0mm 0 W/m2
05:32 57 °F /  13.9 °C 55 °F /  12.8 °C 30in /  1016.9hPa Calm     93% 0in /  0.0mm 0 W/m2
05:37 57 °F /  13.9 °C 55 °F /  12.8 °C 30in /  1016.9hPa Calm     93% 0in /  0.0mm 0 W/m2
05:42 56.8 °F /  13.8 °C 54.9 °F /  12.7 °C 30in /  1016.9hPa Calm     93% 0in /  0.0mm 0 W/m2
05:47 56.8 °F /  13.8 °C 54.9 °F /  12.7 °C 30in /  1016.9hPa Calm     93% 0in /  0.0mm 0 W/m2
05:52 56.7 °F /  13.7 °C 54.7 °F /  12.6 °C 30in /  1016.9hPa Calm     93% 0in /  0.0mm 0 W/m2
05:57 56.7 °F /  13.7 °C 54.7 °F /  12.6 °C 30in /  1016.9hPa Calm     93% 0in /  0.0mm 0 W/m2
06:02 56.5 °F /  13.6 °C 54.5 °F /  12.5 °C 30in /  1016.9hPa Calm     93% 0in /  0.0mm 0 W/m2
06:07 56.3 °F /  13.5 °C 54.3 °F /  12.4 °C 30in /  1016.9hPa Calm     93% 0in /  0.0mm 0 W/m2
06:12 56.1 °F /  13.4 °C 54.1 °F /  12.3 °C 30in /  1016.9hPa Calm     93% 0in /  0.0mm 0 W/m2
06:17 55.9 °F /  13.3 °C 54 °F /  12.2 °C 30in /  1016.9hPa Calm     93% 0in /  0.0mm 0 W/m2
06:22 55.9 °F /  13.3 °C 54 °F /  12.2 °C 30in /  1016.9hPa Calm     93% 0in /  0.0mm 0 W/m2
06:27 55.9 °F /  13.3 °C 54 °F /  12.2 °C 30in /  1017.3hPa Calm     93% 0in /  0.0mm 0 W/m2
06:32 55.9 °F /  13.3 °C 54.3 °F /  12.4 °C 30in /  1017.3hPa Calm     94% 0in /  0.0mm 0 W/m2
06:37 55.9 °F /  13.3 °C 54.3 °F /  12.4 °C 30in /  1017.3hPa Calm     94% 0in /  0.0mm 0 W/m2
06:42 55.9 °F /  13.3 °C 54.3 °F /  12.4 °C 30in /  1017.3hPa Calm     94% 0in /  0.0mm 0 W/m2
06:47 56.1 °F /  13.4 °C 54.5 °F /  12.5 °C 30in /  1017.3hPa Calm     94% 0in /  0.0mm 0 W/m2
06:52 56.1 °F /  13.4 °C 54.5 °F /  12.5 °C 30in /  1017.3hPa Calm     94% 0in /  0.0mm 0 W/m2
06:57 56.1 °F /  13.4 °C 54.5 °F /  12.5 °C 30in /  1017.3hPa Calm     94% 0in /  0.0mm 0 W/m2
07:02 55.9 °F /  13.3 °C 54.3 °F /  12.4 °C 30in /  1017.3hPa Calm     94% 0in /  0.0mm 5 W/m2
07:07 55.9 °F /  13.3 °C 54.3 °F /  12.4 °C 30.1in /  1017.6hPa Calm     94% 0in /  0.0mm 7 W/m2
07:13 55.9 °F /  13.3 °C 54.3 °F /  12.4 °C 30.1in /  1017.6hPa Calm     94% 0in /  0.0mm 9 W/m2
07:18 55.9 °F /  13.3 °C 54.3 °F /  12.4 °C 30.1in /  1017.6hPa Calm     94% 0in /  0.0mm 11 W/m2
07:23 56.1 °F /  13.4 °C 54.5 °F /  12.5 °C 30.1in /  1017.6hPa Calm     94% 0in /  0.0mm 14 W/m2
07:28 56.3 °F /  13.5 °C 54.9 °F /  12.7 °C 30.1in /  1017.6hPa Calm     95% 0in /  0.0mm 16 W/m2
07:33 56.5 °F /  13.6 °C 55 °F /  12.8 °C 30.1in /  1017.6hPa Calm     95% 0in /  0.0mm 18 W/m2
07:38 56.5 °F /  13.6 °C 54.9 °F /  12.7 °C 30.1in /  1017.6hPa Calm     94% 0in /  0.0mm 19 W/m2
07:43 56.7 °F /  13.7 °C 55 °F /  12.8 °C 30.1in /  1017.6hPa Calm     94% 0in /  0.0mm 21 W/m2
07:48 56.5 °F /  13.6 °C 54.9 °F /  12.7 °C 30.1in /  1018.0hPa Calm     94% 0in /  0.0mm 23 W/m2
07:53 56.5 °F /  13.6 °C 54.9 °F /  12.7 °C 30.1in /  1017.6hPa Calm     94% 0in /  0.0mm 25 W/m2
07:58 56.5 °F /  13.6 °C 54.9 °F /  12.7 °C 30.1in /  1018.0hPa Calm     94% 0in /  0.0mm 26 W/m2
08:03 56.7 °F /  13.7 °C 55 °F /  12.8 °C 30.1in /  1018.0hPa Calm     94% 0in /  0.0mm 28 W/m2
08:08 56.7 °F /  13.7 °C 55 °F /  12.8 °C 30.1in /  1018.0hPa Calm     94% 0in /  0.0mm 30 W/m2
08:13 56.8 °F /  13.8 °C 55.4 °F /  13 °C 30.1in /  1018.0hPa Calm     95% 0in /  0.0mm 39 W/m2
08:18 57.2 °F /  14 °C 55.8 °F /  13.2 °C 30.1in /  1018.0hPa Calm     95% 0in /  0.0mm 93 W/m2
08:23 57.6 °F /  14.2 °C 56.1 °F /  13.4 °C 30.1in /  1018.0hPa Calm     95% 0in /  0.0mm 121 W/m2
08:28 57.9 °F /  14.4 °C 56.5 °F /  13.6 °C 30.1in /  1018.0hPa Calm   1mph /  1.6km/h 95% 0in /  0.0mm 134 W/m2
08:33 58.5 °F /  14.7 °C 57 °F /  13.9 °C 30.1in /  1018.0hPa Calm     95% 0in /  0.0mm 153 W/m2
08:38 58.8 °F /  14.9 °C 57 °F /  13.9 °C 30.1in /  1018.3hPa Calm     94% 0in /  0.0mm 165 W/m2
08:43 59.4 °F /  15.2 °C 57.4 °F /  14.1 °C 30.1in /  1018.3hPa ESE 0.9mph /  1.4km/h 2mph /  3.2km/h 93% 0in /  0.0mm 179 W/m2
08:48 59.9 °F /  15.5 °C 57.6 °F /  14.2 °C 30.1in /  1018.0hPa NE 0.9mph /  1.4km/h 1mph /  1.6km/h 92% 0in /  0.0mm 197 W/m2
08:53 60.4 °F /  15.8 °C 58.1 °F /  14.5 °C 30.1in /  1018.3hPa ENE 0.9mph /  1.4km/h 2mph /  3.2km/h 92% 0in /  0.0mm 211 W/m2
08:58 60.6 °F /  15.9 °C 57.7 °F /  14.3 °C 30.1in /  1018.3hPa ENE 0.9mph /  1.4km/h 2mph /  3.2km/h 90% 0in /  0.0mm 221 W/m2
09:03 61 °F /  16.1 °C 57.7 °F /  14.3 °C 30.1in /  1018.3hPa Calm   2mph /  3.2km/h 89% 0in /  0.0mm 65 W/m2
09:08 61.3 °F /  16.3 °C 57.7 °F /  14.3 °C 30.1in /  1018.3hPa Calm   3mph /  4.8km/h 88% 0in /  0.0mm 49 W/m2
09:13 61.5 °F /  16.4 °C 57.6 °F /  14.2 °C 30.1in /  1018.3hPa Calm   1mph /  1.6km/h 87% 0in /  0.0mm 234 W/m2
09:18 61.9 °F /  16.6 °C 57.9 °F /  14.4 °C 30.1in /  1018.3hPa Calm     87% 0in /  0.0mm 274 W/m2
09:23 62.2 °F /  16.8 °C 58.3 °F /  14.6 °C 30.1in /  1018.3hPa Calm     87% 0in /  0.0mm 290 W/m2
09:28 62.4 °F /  16.9 °C 58.1 °F /  14.5 °C 30.1in /  1018.3hPa ESE 0.9mph /  1.4km/h 2mph /  3.2km/h 86% 0in /  0.0mm 308 W/m2
09:33 63 °F /  17.2 °C 58.5 °F /  14.7 °C 30.1in /  1018.3hPa ENE 0.9mph /  1.4km/h 1mph /  1.6km/h 85% 0in /  0.0mm 323 W/m2
09:38 63.5 °F /  17.5 °C 58.6 °F /  14.8 °C 30.1in /  1018.3hPa Calm     84% 0in /  0.0mm 336 W/m2
09:43 64 °F /  17.8 °C 58.8 °F /  14.9 °C 30.1in /  1018.3hPa Calm   1mph /  1.6km/h 83% 0in /  0.0mm 353 W/m2
09:48 64.6 °F /  18.1 °C 59 °F /  15 °C 30.1in /  1018.6hPa East 0.9mph /  1.4km/h 2mph /  3.2km/h 82% 0in /  0.0mm 366 W/m2
09:53 64.9 °F /  18.3 °C 59 °F /  15 °C 30.1in /  1018.6hPa Calm   2mph /  3.2km/h 81% 0in /  0.0mm 380 W/m2
09:58 65.7 °F /  18.7 °C 59.4 °F /  15.2 °C 30.1in /  1018.6hPa NW 0.9mph /  1.4km/h 2mph /  3.2km/h 80% 0in /  0.0mm 392 W/m2
10:03 65.7 °F /  18.7 °C 59.4 °F /  15.2 °C 30.1in /  1018.6hPa Calm   1mph /  1.6km/h 80% 0in /  0.0mm 403 W/m2
10:08 65.8 °F /  18.8 °C 59.5 °F /  15.3 °C 30.1in /  1018.6hPa NNE 0.9mph /  1.4km/h 2mph /  3.2km/h 80% 0in /  0.0mm 415 W/m2
10:13 66.4 °F /  19.1 °C 59.4 °F /  15.2 °C 30.1in /  1018.6hPa Calm   1mph /  1.6km/h 78% 0in /  0.0mm 432 W/m2
10:18 66.7 °F /  19.3 °C 59.7 °F /  15.4 °C 30.1in /  1018.6hPa NE 0.9mph /  1.4km/h 3mph /  4.8km/h 78% 0in /  0.0mm 446 W/m2
10:23 67.5 °F /  19.7 °C 60.1 °F /  15.6 °C 30.1in /  1018.6hPa Calm   2mph /  3.2km/h 77% 0in /  0.0mm 461 W/m2
10:28 68 °F /  20 °C 59.7 °F /  15.4 °C 30.1in /  1019.0hPa NNE 0.9mph /  1.4km/h 4mph /  6.4km/h 75% 0in /  0.0mm 487 W/m2
10:33 68.4 °F /  20.2 °C 60.1 °F /  15.6 °C 30.1in /  1019.0hPa NNE 0.9mph /  1.4km/h 3mph /  4.8km/h 75% 0in /  0.0mm 490 W/m2
10:38 68.5 °F /  20.3 °C 59.5 °F /  15.3 °C 30.1in /  1019.0hPa NNE 0.9mph /  1.4km/h 4mph /  6.4km/h 73% 0in /  0.0mm 499 W/m2
10:43 68.7 °F /  20.4 °C 60.1 °F /  15.6 °C 30.1in /  1019.0hPa ENE 0.9mph /  1.4km/h 2mph /  3.2km/h 74% 0in /  0.0mm 510 W/m2
10:48 69.4 °F /  20.8 °C 60.1 °F /  15.6 °C 30.1in /  1019.0hPa Calm   2mph /  3.2km/h 72% 0in /  0.0mm 519 W/m2
10:53 70 °F /  21.1 °C 59.7 °F /  15.4 °C 30.1in /  1019.0hPa ENE 0.9mph /  1.4km/h 3mph /  4.8km/h 70% 0in /  0.0mm 534 W/m2
10:58 70.5 °F /  21.4 °C 59.9 °F /  15.5 °C 30.1in /  1019.0hPa Calm   2mph /  3.2km/h 69% 0in /  0.0mm 541 W/m2
11:03 70.9 °F /  21.6 °C 59.7 °F /  15.4 °C 30.1in /  1019.0hPa Calm   1mph /  1.6km/h 68% 0in /  0.0mm 554 W/m2
11:08 71.2 °F /  21.8 °C 60.1 °F /  15.6 °C 30.1in /  1019.0hPa Calm   1mph /  1.6km/h 68% 0in /  0.0mm 563 W/m2
11:13 71.4 °F /  21.9 °C 59 °F /  15 °C 30.1in /  1019.0hPa Calm   4mph /  6.4km/h 65% 0in /  0.0mm 573 W/m2
11:18 71.6 °F /  22 °C 59.7 °F /  15.4 °C 30.1in /  1019.0hPa East 0.9mph /  1.4km/h 4mph /  6.4km/h 66% 0in /  0.0mm 580 W/m2
11:23 71.8 °F /  22.1 °C 59.4 °F /  15.2 °C 30.1in /  1019.0hPa ESE 0.9mph /  1.4km/h 3mph /  4.8km/h 65% 0in /  0.0mm 587 W/m2
11:28 71.8 °F /  22.1 °C 59.4 °F /  15.2 °C 30.1in /  1019.0hPa South 2mph /  3.2km/h 4mph /  6.4km/h 65% 0in /  0.0mm 594 W/m2
11:33 72.1 °F /  22.3 °C 60.1 °F /  15.6 °C 30.1in /  1019.0hPa East 2mph /  3.2km/h 5mph /  8km/h 66% 0in /  0.0mm 601 W/m2
11:38 72.3 °F /  22.4 °C 59.5 °F /  15.3 °C 30.1in /  1019.0hPa ESE 2mph /  3.2km/h 3mph /  4.8km/h 64% 0in /  0.0mm 608 W/m2
11:43 72.7 °F /  22.6 °C 59.7 °F /  15.4 °C 30.1in /  1019.0hPa ESE 2mph /  3.2km/h 2mph /  3.2km/h 64% 0in /  0.0mm 612 W/m2
11:48 73.4 °F /  23 °C 61 °F /  16.1 °C 30.1in /  1019.0hPa Calm   1mph /  1.6km/h 65% 0in /  0.0mm 628 W/m2
11:53 73.9 °F /  23.3 °C 60.1 °F /  15.6 °C 30.1in /  1019.0hPa NE 0.9mph /  1.4km/h 4mph /  6.4km/h 62% 0in /  0.0mm 635 W/m2
11:58 74.3 °F /  23.5 °C 60.4 °F /  15.8 °C 30.1in /  1019.0hPa Calm   2mph /  3.2km/h 62% 0in /  0.0mm 645 W/m2
12:03 74.5 °F /  23.6 °C 60.6 °F /  15.9 °C 30.1in /  1018.6hPa SSE 0.9mph /  1.4km/h 4mph /  6.4km/h 62% 0in /  0.0mm 652 W/m2
12:08 75 °F /  23.9 °C 60.6 °F /  15.9 °C 30.1in /  1018.6hPa NNE 2mph /  3.2km/h 3mph /  4.8km/h 61% 0in /  0.0mm 661 W/m2
12:13 75 °F /  23.9 °C 59.7 °F /  15.4 °C 30.1in /  1018.6hPa East 2mph /  3.2km/h 5mph /  8km/h 59% 0in /  0.0mm 664 W/m2
12:18 75.4 °F /  24.1 °C 60.4 °F /  15.8 °C 30.1in /  1018.6hPa Calm   3mph /  4.8km/h 60% 0in /  0.0mm 670 W/m2
12:23 75.7 °F /  24.3 °C 60.8 °F /  16 °C 30.1in /  1018.6hPa ESE 2mph /  3.2km/h 4mph /  6.4km/h 60% 0in /  0.0mm 675 W/m2
12:28 76.3 °F /  24.6 °C 61 °F /  16.1 °C 30.1in /  1018.6hPa NE 0.9mph /  1.4km/h 4mph /  6.4km/h 59% 0in /  0.0mm 684 W/m2
12:33 76.6 °F /  24.8 °C 60.8 °F /  16 °C 30.1in /  1018.6hPa ENE 0.9mph /  1.4km/h 5mph /  8km/h 58% 0in /  0.0mm 687 W/m2
12:38 77.2 °F /  25.1 °C 60.3 °F /  15.7 °C 30.1in /  1018.6hPa ESE 4mph /  6.4km/h 5mph /  8km/h 56% 0in /  0.0mm 691 W/m2
12:43 77.5 °F /  25.3 °C 60.6 °F /  15.9 °C 30.1in /  1018.6hPa East 0.9mph /  1.4km/h 2mph /  3.2km/h 56% 0in /  0.0mm 694 W/m2
12:48 77.5 °F /  25.3 °C 61.2 °F /  16.2 °C 30.1in /  1018.6hPa East 0.9mph /  1.4km/h 3mph /  4.8km/h 57% 0in /  0.0mm 698 W/m2
12:53 77.5 °F /  25.3 °C 60.6 °F /  15.9 °C 30.1in /  1018.6hPa NE 6mph /  9.7km/h 6mph /  9.7km/h 56% 0in /  0.0mm 701 W/m2
12:58 77.4 °F /  25.2 °C 59.9 °F /  15.5 °C 30.1in /  1018.6hPa SE 2.9mph /  4.7km/h 4mph /  6.4km/h 55% 0in /  0.0mm 703 W/m2
13:03 77.5 °F /  25.3 °C 60.6 °F /  15.9 °C 30.1in /  1018.6hPa East 4mph /  6.4km/h 7mph /  11.3km/h 56% 0in /  0.0mm 705 W/m2
13:08 77.7 °F /  25.4 °C 60.3 °F /  15.7 °C 30.1in /  1018.3hPa SE 2mph /  3.2km/h 6mph /  9.7km/h 55% 0in /  0.0mm 714 W/m2
13:13 78.1 °F /  25.6 °C 61.2 °F /  16.2 °C 30.1in /  1018.3hPa ESE 2mph /  3.2km/h 7mph /  11.3km/h 56% 0in /  0.0mm 710 W/m2
13:18 78.3 °F /  25.7 °C 61.3 °F /  16.3 °C 30.1in /  1018.3hPa NE 2mph /  3.2km/h 4mph /  6.4km/h 56% 0in /  0.0mm 710 W/m2
13:23 78.4 °F /  25.8 °C 59.9 °F /  15.5 °C 30.1in /  1018.3hPa NE 2.9mph /  4.7km/h 3mph /  4.8km/h 53% 0in /  0.0mm 715 W/m2
13:28 78.4 °F /  25.8 °C 59.9 °F /  15.5 °C 30.1in /  1018.3hPa East 0.9mph /  1.4km/h 2mph /  3.2km/h 53% 0in /  0.0mm 717 W/m2
13:33 78.8 °F /  26 °C 60.8 °F /  16 °C 30.1in /  1018.3hPa ESE 2mph /  3.2km/h 4mph /  6.4km/h 54% 0in /  0.0mm 726 W/m2
13:38 79 °F /  26.1 °C 60.4 °F /  15.8 °C 30.1in /  1018.3hPa Calm   4mph /  6.4km/h 53% 0in /  0.0mm 731 W/m2
13:43 78.8 °F /  26 °C 58.6 °F /  14.8 °C 30.1in /  1018.3hPa NE 0.9mph /  1.4km/h 8mph /  12.9km/h 50% 0in /  0.0mm 584 W/m2
13:48 78.8 °F /  26 °C 59.2 °F /  15.1 °C 30.1in /  1018.6hPa ENE 2.9mph /  4.7km/h 3mph /  4.8km/h 51% 0in /  0.0mm 733 W/m2
13:53 79.2 °F /  26.2 °C 61.2 °F /  16.2 °C 30.1in /  1018.3hPa North 4mph /  6.4km/h 4mph /  6.4km/h 54% 0in /  0.0mm 747 W/m2
13:58 79.2 °F /  26.2 °C 59 °F /  15 °C 30.1in /  1018.3hPa West 2.9mph /  4.7km/h 3mph /  4.8km/h 50% 0in /  0.0mm 740 W/m2
14:03 79.2 °F /  26.2 °C 57.7 °F /  14.3 °C 30.1in /  1018.3hPa SSE 2mph /  3.2km/h 4mph /  6.4km/h 48% 0in /  0.0mm 766 W/m2
14:08 79.2 °F /  26.2 °C 57.2 °F /  14 °C 30.1in /  1018.3hPa Calm   7mph /  11.3km/h 47% 0in /  0.0mm 701 W/m2
14:13 79.3 °F /  26.3 °C 57.9 °F /  14.4 °C 30.1in /  1018.3hPa North 0.9mph /  1.4km/h 2mph /  3.2km/h 48% 0in /  0.0mm 613 W/m2
14:18 79.5 °F /  26.4 °C 58.6 °F /  14.8 °C 30.1in /  1018.3hPa East 0.9mph /  1.4km/h 6mph /  9.7km/h 49% 0in /  0.0mm 457 W/m2
14:23 79.5 °F /  26.4 °C 58.6 °F /  14.8 °C 30.1in /  1018.6hPa NE 2mph /  3.2km/h 5mph /  8km/h 49% 0in /  0.0mm 715 W/m2
14:28 79.9 °F /  26.6 °C 59 °F /  15 °C 30.1in /  1018.3hPa South 2.9mph /  4.7km/h 6mph /  9.7km/h 49% 0in /  0.0mm 853 W/m2
14:34 79.9 °F /  26.6 °C 57.9 °F /  14.4 °C 30.1in /  1018.3hPa NW 2mph /  3.2km/h 4mph /  6.4km/h 47% 0in /  0.0mm 536 W/m2
14:39 79.9 °F /  26.6 °C 58.5 °F /  14.7 °C 30.1in /  1018.3hPa NNW 2.9mph /  4.7km/h 5mph /  8km/h 48% 0in /  0.0mm 345 W/m2
14:44 79.5 °F /  26.4 °C 58.1 °F /  14.5 °C 30.1in /  1018.3hPa NNW 0.9mph /  1.4km/h 3mph /  4.8km/h 48% 0in /  0.0mm 345 W/m2
14:49 79.7 °F /  26.5 °C 57 °F /  13.9 °C 30.1in /  1018.3hPa Calm   4mph /  6.4km/h 46% 0in /  0.0mm 403 W/m2
14:54 79.7 °F /  26.5 °C 55.9 °F /  13.3 °C 30.1in /  1018.3hPa ESE 0.9mph /  1.4km/h 2mph /  3.2km/h 44% 0in /  0.0mm 446 W/m2
14:59 79.5 °F /  26.4 °C 58.6 °F /  14.8 °C 30.1in /  1018.3hPa Calm   1mph /  1.6km/h 49% 0in /  0.0mm 468 W/m2
15:04 79.5 °F /  26.4 °C 57.6 °F /  14.2 °C 30.1in /  1018.3hPa East 4.9mph /  7.9km/h 5mph /  8km/h 47% 0in /  0.0mm 492 W/m2
15:09 79.9 °F /  26.6 °C 57.2 °F /  14 °C 30.1in /  1018.3hPa ESE 0.9mph /  1.4km/h 3mph /  4.8km/h 46% 0in /  0.0mm 587 W/m2
15:14 80.2 °F /  26.8 °C 58.8 °F /  14.9 °C 30.1in /  1018.3hPa ESE 2mph /  3.2km/h 10mph /  16.1km/h 48% 0in /  0.0mm 568 W/m2
15:19 80.8 °F /  27.1 °C 57.4 °F /  14.1 °C 30.1in /  1018.3hPa East 0.9mph /  1.4km/h 6mph /  9.7km/h 45% 0in /  0.0mm 508 W/m2
15:24 80.6 °F /  27 °C 57.4 °F /  14.1 °C 30.1in /  1018.3hPa SE 2.9mph /  4.7km/h 10mph /  16.1km/h 45% 0in /  0.0mm 380 W/m2
15:29 80.4 °F /  26.9 °C 57.7 °F /  14.3 °C 30.1in /  1018.3hPa Calm   2mph /  3.2km/h 46% 0in /  0.0mm 350 W/m2
15:34 80.2 °F /  26.8 °C 57.6 °F /  14.2 °C 30.1in /  1018.0hPa Calm   6mph /  9.7km/h 46% 0in /  0.0mm 343 W/m2
15:39 80.2 °F /  26.8 °C 58.8 °F /  14.9 °C 30.1in /  1018.0hPa NE 2mph /  3.2km/h 2mph /  3.2km/h 48% 0in /  0.0mm 336 W/m2
15:44 80.1 °F /  26.7 °C 57.4 °F /  14.1 °C 30.1in /  1018.0hPa ESE 2.9mph /  4.7km/h 4mph /  6.4km/h 46% 0in /  0.0mm 311 W/m2
15:49 79.7 °F /  26.5 °C 57.7 °F /  14.3 °C 30.1in /  1018.0hPa NE 0.9mph /  1.4km/h 7mph /  11.3km/h 47% 0in /  0.0mm 306 W/m2
15:54 79.5 °F /  26.4 °C 58.1 °F /  14.5 °C 30.1in /  1018.0hPa NW 0.9mph /  1.4km/h 3mph /  4.8km/h 48% 0in /  0.0mm 350 W/m2
15:59 79.5 °F /  26.4 °C 57.6 °F /  14.2 °C 30.1in /  1018.0hPa NW 2mph /  3.2km/h 7mph /  11.3km/h 47% 0in /  0.0mm 322 W/m2
16:04 79.5 °F /  26.4 °C 57.6 °F /  14.2 °C 30.1in /  1018.0hPa WNW 2mph /  3.2km/h 8mph /  12.9km/h 47% 0in /  0.0mm 299 W/m2
16:09 79.3 °F /  26.3 °C 57.9 °F /  14.4 °C 30.1in /  1018.0hPa WNW 2mph /  3.2km/h 2mph /  3.2km/h 48% 0in /  0.0mm 290 W/m2
16:14 79.3 °F /  26.3 °C 57.9 °F /  14.4 °C 30.1in /  1018.0hPa North 4mph /  6.4km/h 4mph /  6.4km/h 48% 0in /  0.0mm 297 W/m2
16:19 79.3 °F /  26.3 °C 57.9 °F /  14.4 °C 30.1in /  1018.0hPa WNW 2mph /  3.2km/h 5mph /  8km/h 48% 0in /  0.0mm 380 W/m2
16:24 79.3 °F /  26.3 °C 58.5 °F /  14.7 °C 30.1in /  1018.0hPa West 2mph /  3.2km/h 5mph /  8km/h 49% 0in /  0.0mm 411 W/m2
16:29 79.3 °F /  26.3 °C 57.9 °F /  14.4 °C 30.1in /  1018.0hPa NW 4mph /  6.4km/h 4mph /  6.4km/h 48% 0in /  0.0mm 373 W/m2
16:34 79.5 °F /  26.4 °C 58.1 °F /  14.5 °C 30.1in /  1018.0hPa NNW 2mph /  3.2km/h 4mph /  6.4km/h 48% 0in /  0.0mm 487 W/m2
16:39 80.1 °F /  26.7 °C 58.6 °F /  14.8 °C 30.1in /  1018.0hPa NNE 2mph /  3.2km/h 5mph /  8km/h 48% 0in /  0.0mm 357 W/m2
16:44 80.2 °F /  26.8 °C 57.6 °F /  14.2 °C 30.1in /  1018.0hPa West 0.9mph /  1.4km/h 7mph /  11.3km/h 46% 0in /  0.0mm 515 W/m2
16:49 80.4 °F /  26.9 °C 57.7 °F /  14.3 °C 30.1in /  1018.0hPa ESE 2mph /  3.2km/h 4mph /  6.4km/h 46% 0in /  0.0mm 330 W/m2
16:54 80.4 °F /  26.9 °C 58.3 °F /  14.6 °C 30.1in /  1018.0hPa ENE 2.9mph /  4.7km/h 7mph /  11.3km/h 47% 0in /  0.0mm 399 W/m2
16:59 80.4 °F /  26.9 °C 58.3 °F /  14.6 °C 30.1in /  1018.0hPa NE 6mph /  9.7km/h 8mph /  12.9km/h 47% 0in /  0.0mm 357 W/m2
17:04 80.2 °F /  26.8 °C 58.1 °F /  14.5 °C 30.1in /  1018.0hPa ESE 2mph /  3.2km/h 7mph /  11.3km/h 47% 0in /  0.0mm 239 W/m2
17:09 79.9 °F /  26.6 °C 58.5 °F /  14.7 °C 30.1in /  1018.0hPa WNW 4mph /  6.4km/h 4mph /  6.4km/h 48% 0in /  0.0mm 181 W/m2
17:14 79.3 °F /  26.3 °C 57.9 °F /  14.4 °C 30.1in /  1018.0hPa West 4mph /  6.4km/h 4mph /  6.4km/h 48% 0in /  0.0mm 167 W/m2
17:19 78.8 °F /  26 °C 58.1 °F /  14.5 °C 30.1in /  1018.0hPa NW 2.9mph /  4.7km/h 4mph /  6.4km/h 49% 0in /  0.0mm 160 W/m2
17:24 78.6 °F /  25.9 °C 57.9 °F /  14.4 °C 30.1in /  1018.0hPa Calm   1mph /  1.6km/h 49% 0in /  0.0mm 176 W/m2
17:29 78.8 °F /  26 °C 57.4 °F /  14.1 °C 30.1in /  1018.0hPa NNW 2.9mph /  4.7km/h 4mph /  6.4km/h 48% 0in /  0.0mm 239 W/m2
17:34 79.2 °F /  26.2 °C 58.3 °F /  14.6 °C 30.1in /  1018.0hPa NW 0.9mph /  1.4km/h 5mph /  8km/h 49% 0in /  0.0mm 459 W/m2
17:39 79.7 °F /  26.5 °C 58.3 °F /  14.6 °C 30.1in /  1018.0hPa West 2.9mph /  4.7km/h 4mph /  6.4km/h 48% 0in /  0.0mm 492 W/m2
17:44 80.1 °F /  26.7 °C 58.1 °F /  14.5 °C 30.1in /  1018.0hPa NW 4mph /  6.4km/h 5mph /  8km/h 47% 0in /  0.0mm 445 W/m2
17:49 80.2 °F /  26.8 °C 58.1 °F /  14.5 °C 30.1in /  1018.0hPa North 2.9mph /  4.7km/h 3mph /  4.8km/h 47% 0in /  0.0mm 404 W/m2
17:54 80.6 °F /  27 °C 59.2 °F /  15.1 °C 30.1in /  1018.0hPa NE 2.9mph /  4.7km/h 3mph /  4.8km/h 48% 0in /  0.0mm 359 W/m2
17:59 81 °F /  27.2 °C 58.3 °F /  14.6 °C 30.1in /  1018.0hPa NE 0.9mph /  1.4km/h 5mph /  8km/h 46% 0in /  0.0mm 334 W/m2
18:04 81 °F /  27.2 °C 58.8 °F /  14.9 °C 30.1in /  1018.0hPa ESE 2.9mph /  4.7km/h 7mph /  11.3km/h 47% 0in /  0.0mm 311 W/m2
18:09 81 °F /  27.2 °C 58.3 °F /  14.6 °C 30.1in /  1018.0hPa ESE 2.9mph /  4.7km/h 3mph /  4.8km/h 46% 0in /  0.0mm 297 W/m2
18:14 81 °F /  27.2 °C 58.8 °F /  14.9 °C 30.1in /  1018.0hPa NNW 4mph /  6.4km/h 7mph /  11.3km/h 47% 0in /  0.0mm 290 W/m2
18:19 81 °F /  27.2 °C 58.3 °F /  14.6 °C 30.1in /  1018.0hPa ENE 0.9mph /  1.4km/h 2mph /  3.2km/h 46% 0in /  0.0mm 269 W/m2
18:24 81.1 °F /  27.3 °C 58.5 °F /  14.7 °C 30.1in /  1018.0hPa WSW 2.9mph /  4.7km/h 4mph /  6.4km/h 46% 0in /  0.0mm 253 W/m2
18:29 81.3 °F /  27.4 °C 59.2 °F /  15.1 °C 30.1in /  1018.0hPa North 2mph /  3.2km/h 2mph /  3.2km/h 47% 0in /  0.0mm 236 W/m2
18:34 81.1 °F /  27.3 °C 60.8 °F /  16 °C 30.1in /  1018.0hPa SW 2.9mph /  4.7km/h 3mph /  4.8km/h 50% 0in /  0.0mm 218 W/m2
18:39 80.8 °F /  27.1 °C 59.9 °F /  15.5 °C 30.1in /  1018.0hPa SW 0.9mph /  1.4km/h 2mph /  3.2km/h 49% 0in /  0.0mm 200 W/m2
18:44 80.4 °F /  26.9 °C 60.6 °F /  15.9 °C 30.1in /  1018.0hPa SSE 0.9mph /  1.4km/h 1mph /  1.6km/h 51% 0in /  0.0mm 185 W/m2
18:49 80.1 °F /  26.7 °C 59.7 °F /  15.4 °C 30.1in /  1018.0hPa North 2mph /  3.2km/h 2mph /  3.2km/h 50% 0in /  0.0mm 171 W/m2
18:54 79.9 °F /  26.6 °C 59.5 °F /  15.3 °C 30.1in /  1018.0hPa SW 0.9mph /  1.4km/h 1mph /  1.6km/h 50% 0in /  0.0mm 155 W/m2
18:59 79.7 °F /  26.5 °C 59.9 °F /  15.5 °C 30.1in /  1018.3hPa Calm   1mph /  1.6km/h 51% 0in /  0.0mm 142 W/m2
19:04 79.3 °F /  26.3 °C 59.7 °F /  15.4 °C 30.1in /  1018.3hPa NNE 0.9mph /  1.4km/h 2mph /  3.2km/h 51% 0in /  0.0mm 128 W/m2
19:09 79.2 °F /  26.2 °C 60.6 °F /  15.9 °C 30.1in /  1018.3hPa NNW 0.9mph /  1.4km/h 3mph /  4.8km/h 53% 0in /  0.0mm 113 W/m2
19:14 78.6 °F /  25.9 °C 61.5 °F /  16.4 °C 30.1in /  1018.3hPa SSE 2mph /  3.2km/h 2mph /  3.2km/h 56% 0in /  0.0mm 76 W/m2
19:19 77.9 °F /  25.5 °C 61.9 °F /  16.6 °C 30.1in /  1018.3hPa Calm   2mph /  3.2km/h 58% 0in /  0.0mm 81 W/m2
19:24 77.2 °F /  25.1 °C 62.2 °F /  16.8 °C 30.1in /  1018.3hPa Calm   1mph /  1.6km/h 60% 0in /  0.0mm 40 W/m2
19:29 76.5 °F /  24.7 °C 61.5 °F /  16.4 °C 30.1in /  1018.3hPa SSE 0.9mph /  1.4km/h 1mph /  1.6km/h 60% 0in /  0.0mm 25 W/m2
19:34 75.6 °F /  24.2 °C 61.2 °F /  16.2 °C 30.1in /  1018.3hPa SSE 0.9mph /  1.4km/h 2mph /  3.2km/h 61% 0in /  0.0mm 21 W/m2
19:39 74.8 °F /  23.8 °C 61.3 °F /  16.3 °C 30.1in /  1018.3hPa SSE 0.9mph /  1.4km/h 2mph /  3.2km/h 63% 0in /  0.0mm 19 W/m2
19:44 74.3 °F /  23.5 °C 61.3 °F /  16.3 °C 30.1in /  1018.6hPa SSE 2mph /  3.2km/h 2mph /  3.2km/h 64% 0in /  0.0mm 16 W/m2
19:49 73.8 °F /  23.2 °C 61.3 °F /  16.3 °C 30.1in /  1018.6hPa Calm   2mph /  3.2km/h 65% 0in /  0.0mm 16 W/m2
19:54 73.2 °F /  22.9 °C 61.2 °F /  16.2 °C 30.1in /  1018.6hPa SSE 0.9mph /  1.4km/h 2mph /  3.2km/h 66% 0in /  0.0mm 14 W/m2
19:59 72.9 °F /  22.7 °C 61.3 °F /  16.3 °C 30.1in /  1018.6hPa SSE 0.9mph /  1.4km/h 1mph /  1.6km/h 67% 0in /  0.0mm 12 W/m2
20:04 72.3 °F /  22.4 °C 60.8 °F /  16 °C 30.1in /  1018.6hPa Calm   2mph /  3.2km/h 67% 0in /  0.0mm 9 W/m2
20:09 71.8 °F /  22.1 °C 60.6 °F /  15.9 °C 30.1in /  1018.6hPa SSE 0.9mph /  1.4km/h 1mph /  1.6km/h 68% 0in /  0.0mm 5 W/m2
20:14 71.1 °F /  21.7 °C 60.4 °F /  15.8 °C 30.1in /  1018.6hPa South 0.9mph /  1.4km/h 2mph /  3.2km/h 69% 0in /  0.0mm 0 W/m2
20:19 70.7 °F /  21.5 °C 60.4 °F /  15.8 °C 30.1in /  1018.6hPa Calm   2mph /  3.2km/h 70% 0in /  0.0mm 0 W/m2
20:24 70.3 °F /  21.3 °C 60.1 °F /  15.6 °C 30.1in /  1018.6hPa South 0.9mph /  1.4km/h 2mph /  3.2km/h 70% 0in /  0.0mm 0 W/m2
20:29 70 °F /  21.1 °C 60.1 °F /  15.6 °C 30.1in /  1019.0hPa Calm     71% 0in /  0.0mm 0 W/m2
20:34 69.6 °F /  20.9 °C 59.7 °F /  15.4 °C 30.1in /  1019.0hPa Calm   2mph /  3.2km/h 71% 0in /  0.0mm 0 W/m2
20:39 69.3 °F /  20.7 °C 59.5 °F /  15.3 °C 30.1in /  1019.0hPa Calm   1mph /  1.6km/h 71% 0in /  0.0mm 0 W/m2
20:44 69.1 °F /  20.6 °C 59.7 °F /  15.4 °C 30.1in /  1019.0hPa Calm   2mph /  3.2km/h 72% 0in /  0.0mm 0 W/m2
20:49 68.7 °F /  20.4 °C 59.7 °F /  15.4 °C 30.1in /  1019.0hPa South 0.9mph /  1.4km/h 1mph /  1.6km/h 73% 0in /  0.0mm 0 W/m2
20:54 68.4 °F /  20.2 °C 59.4 °F /  15.2 °C 30.1in /  1019.0hPa Calm     73% 0in /  0.0mm 0 W/m2
20:59 68.2 °F /  20.1 °C 59.5 °F /  15.3 °C 30.1in /  1019.0hPa Calm     74% 0in /  0.0mm 0 W/m2
21:04 68 °F /  20 °C 59.4 °F /  15.2 °C 30.1in /  1019.3hPa Calm     74% 0in /  0.0mm 0 W/m2
21:09 67.6 °F /  19.8 °C 59 °F /  15 °C 30.1in /  1019.3hPa Calm     74% 0in /  0.0mm 0 W/m2
21:14 67.5 °F /  19.7 °C 59.2 °F /  15.1 °C 30.1in /  1019.3hPa Calm     75% 0in /  0.0mm 0 W/m2
21:19 67.3 °F /  19.6 °C 59 °F /  15 °C 30.1in /  1019.3hPa Calm   2mph /  3.2km/h 75% 0in /  0.0mm 0 W/m2
21:24 66.9 °F /  19.4 °C 58.8 °F /  14.9 °C 30.1in /  1019.3hPa South 0.9mph /  1.4km/h 1mph /  1.6km/h 75% 0in /  0.0mm 0 W/m2
21:29 66.7 °F /  19.3 °C 59 °F /  15 °C 30.1in /  1019.3hPa Calm     76% 0in /  0.0mm 0 W/m2
21:34 66.6 °F /  19.2 °C 58.8 °F /  14.9 °C 30.1in /  1019.3hPa Calm   1mph /  1.6km/h 76% 0in /  0.0mm 0 W/m2
21:39 66.4 °F /  19.1 °C 58.6 °F /  14.8 °C 30.1in /  1019.3hPa Calm     76% 0in /  0.0mm 0 W/m2
21:44 66 °F /  18.9 °C 58.6 °F /  14.8 °C 30.1in /  1019.3hPa Calm   1mph /  1.6km/h 77% 0in /  0.0mm 0 W/m2
21:49 65.8 °F /  18.8 °C 58.5 °F /  14.7 °C 30.1in /  1019.3hPa Calm   2mph /  3.2km/h 77% 0in /  0.0mm 0 W/m2
21:54 65.8 °F /  18.8 °C 58.5 °F /  14.7 °C 30.1in /  1019.6hPa Calm   1mph /  1.6km/h 77% 0in /  0.0mm 0 W/m2
21:59 65.7 °F /  18.7 °C 58.3 °F /  14.6 °C 30.1in /  1019.3hPa Calm   1mph /  1.6km/h 77% 0in /  0.0mm 0 W/m2
22:04 65.7 °F /  18.7 °C 58.3 °F /  14.6 °C 30.1in /  1019.6hPa Calm     77% 0in /  0.0mm 0 W/m2
22:09 65.5 °F /  18.6 °C 58.1 °F /  14.5 °C 30.1in /  1019.6hPa Calm   1mph /  1.6km/h 77% 0in /  0.0mm 0 W/m2
22:14 65.1 °F /  18.4 °C 58.1 °F /  14.5 °C 30.1in /  1019.6hPa Calm   1mph /  1.6km/h 78% 0in /  0.0mm 0 W/m2
22:19 64.9 °F /  18.3 °C 57.9 °F /  14.4 °C 30.1in /  1019.6hPa Calm     78% 0in /  0.0mm 0 W/m2
22:24 64.8 °F /  18.2 °C 58.1 °F /  14.5 °C 30.1in /  1019.6hPa Calm   1mph /  1.6km/h 79% 0in /  0.0mm 0 W/m2
22:29 64.6 °F /  18.1 °C 57.9 °F /  14.4 °C 30.1in /  1019.6hPa Calm   2mph /  3.2km/h 79% 0in /  0.0mm 0 W/m2
22:34 64.4 °F /  18 °C 58.1 °F /  14.5 °C 30.1in /  1019.6hPa Calm     80% 0in /  0.0mm 0 W/m2
22:39 64.2 °F /  17.9 °C 57.9 °F /  14.4 °C 30.1in /  1019.6hPa Calm   2mph /  3.2km/h 80% 0in /  0.0mm 0 W/m2
22:44 64 °F /  17.8 °C 57.7 °F /  14.3 °C 30.1in /  1019.6hPa Calm     80% 0in /  0.0mm 0 W/m2
22:49 64 °F /  17.8 °C 57.7 °F /  14.3 °C 30.1in /  1019.6hPa Calm   1mph /  1.6km/h 80% 0in /  0.0mm 0 W/m2
22:54 63.9 °F /  17.7 °C 57.6 °F /  14.2 °C 30.1in /  1019.6hPa Calm     80% 0in /  0.0mm 0 W/m2
22:59 63.7 °F /  17.6 °C 57.7 °F /  14.3 °C 30.1in /  1019.6hPa Calm     81% 0in /  0.0mm 0 W/m2
23:04 63.5 °F /  17.5 °C 57.6 °F /  14.2 °C 30.1in /  1019.6hPa South 0.9mph /  1.4km/h 2mph /  3.2km/h 81% 0in /  0.0mm 0 W/m2
23:10 63.3 °F /  17.4 °C 57.7 °F /  14.3 °C 30.1in /  1019.6hPa Calm   2mph /  3.2km/h 82% 0in /  0.0mm 0 W/m2
23:15 63.1 °F /  17.3 °C 57.6 °F /  14.2 °C 30.1in /  1019.6hPa Calm     82% 0in /  0.0mm 0 W/m2
23:20 63.1 °F /  17.3 °C 57.6 °F /  14.2 °C 30.1in /  1019.6hPa Calm   1mph /  1.6km/h 82% 0in /  0.0mm 0 W/m2
23:25 63 °F /  17.2 °C 57.4 °F /  14.1 °C 30.1in /  1019.6hPa South 0.9mph /  1.4km/h 1mph /  1.6km/h 82% 0in /  0.0mm 0 W/m2
23:30 63 °F /  17.2 °C 57.4 °F /  14.1 °C 30.1in /  1019.6hPa Calm     82% 0in /  0.0mm 0 W/m2
23:35 62.8 °F /  17.1 °C 57.6 °F /  14.2 °C 30.1in /  1019.6hPa Calm     83% 0in /  0.0mm 0 W/m2
23:40 62.6 °F /  17 °C 57.4 °F /  14.1 °C 30.1in /  1019.6hPa Calm     83% 0in /  0.0mm 0 W/m2
23:45 62.4 °F /  16.9 °C 57.2 °F /  14 °C 30.1in /  1020.0hPa Calm   2mph /  3.2km/h 83% 0in /  0.0mm 0 W/m2
23:50 62.2 °F /  16.8 °C 57 °F /  13.9 °C 30.1in /  1020.0hPa Calm   2mph /  3.2km/h 83% 0in /  0.0mm 0 W/m2
23:55 62.2 °F /  16.8 °C 57 °F /  13.9 °C 30.1in /  1020.0hPa South 0.9mph /  1.4km/h 1mph /  1.6km/h 83% 0in /  0.0mm 0 W/m2
Juneau County Weather
Compliments of Weather Underground - 2 mb